KHPT/HPT METAR and TAF weather

Enter ICAO airport designator
Station Type Date Time Source
KHPT METAR 2019/02/17 15:35 UTC NOAA

KHPT 171535Z AUTO 05012KT 3SM -SN BKN011 OVC017 M06/M09 A2985 RMK AO2


Station Type Date Time Source
KHPT Decoded METAR 2019/02/17 15:35 UTC NOAA

Station name not available
Feb 17, 2019 - 10:35 AM EST / 2019.02.17 1535 UTC
Wind: from the NE (050 degrees) at 14 MPH (12 KT):0
Visibility: 3 mile(s):0
Sky conditions: overcast
Weather: light snow
Temperature: 21 F (-6 C)
Windchill: 8 F (-13 C):1
Dew Point: 15 F (-9 C)
Relative Humidity: 79%
Pressure (altimeter): 29.85 in. Hg (1010 hPa)
ob: KHPT 171535Z AUTO 05012KT 3SM -SN BKN011 OVC017 M06/M09 A2985 RMK AO2
cycle: 15

Station Type Date Time Source
KHPT TAF UTC NOAA

Error!


Example: see airport list